createdAt,value
2023-03-29T00:01:42.187Z,91.93
2023-03-29T00:04:10.540Z,91.86
2023-03-29T00:06:38.032Z,91.87
2023-03-29T00:09:06.208Z,91.95
2023-03-29T00:11:33.319Z,92.11
2023-03-29T00:13:59.965Z,92.09
2023-03-29T00:16:27.043Z,92.82
2023-03-29T00:18:53.724Z,92.67
2023-03-29T00:21:20.874Z,92.42
2023-03-29T00:23:47.591Z,92.69
2023-03-29T00:26:14.288Z,92.99
2023-03-29T00:28:41.021Z,93.01
2023-03-29T00:31:13.167Z,92.98
2023-03-29T00:33:40.830Z,92.96
2023-03-29T00:36:08.952Z,92.96
2023-03-29T00:38:36.350Z,92.81
2023-03-29T00:41:04.856Z,93.12
2023-03-29T00:43:31.781Z,93.19
2023-03-29T00:45:58.460Z,93.00
2023-03-29T00:48:28.141Z,93.03
2023-03-29T00:50:58.301Z,93.13
2023-03-29T00:53:33.657Z,92.79
2023-03-29T00:56:07.031Z,93.11
2023-03-29T00:58:45.595Z,92.69
2023-03-29T01:01:19.629Z,92.77
2023-03-29T01:03:50.684Z,92.72
2023-03-29T01:06:19.317Z,92.59
2023-03-29T01:08:51.759Z,92.46
2023-03-29T01:11:22.961Z,92.78
2023-03-29T01:13:55.185Z,92.26
2023-03-29T01:16:22.463Z,92.38
2023-03-29T01:18:49.186Z,91.89
2023-03-29T01:21:23.698Z,92.02
2023-03-29T01:23:53.421Z,91.90
2023-03-29T01:26:51.346Z,91.64
2023-03-29T01:29:28.776Z,91.58
2023-03-29T01:32:03.756Z,91.45
2023-03-29T01:34:39.072Z,91.10
2023-03-29T01:37:39.733Z,91.13
2023-03-29T01:40:06.919Z,91.22
2023-03-29T01:42:47.989Z,91.01
2023-03-29T01:45:27.708Z,90.92
2023-03-29T01:48:29.575Z,91.04
2023-03-29T01:51:04.669Z,90.99
2023-03-29T01:53:38.571Z,90.97
2023-03-29T01:56:26.684Z,90.65
2023-03-29T01:59:04.238Z,90.89
2023-03-29T02:01:34.948Z,90.95
2023-03-29T02:04:04.292Z,90.94
2023-03-29T02:06:32.920Z,90.88
2023-03-29T02:09:00.002Z,91.17
2023-03-29T02:11:29.511Z,91.00
2023-03-29T02:13:59.460Z,90.78
2023-03-29T02:16:26.201Z,91.09
2023-03-29T02:18:56.438Z,91.01
2023-03-29T02:21:33.184Z,91.18
2023-03-29T02:24:01.220Z,91.33
2023-03-29T02:26:29.219Z,90.68
2023-03-29T02:28:56.255Z,90.96
2023-03-29T02:31:32.527Z,91.02
2023-03-29T02:34:04.346Z,91.01
2023-03-29T02:36:34.860Z,90.87
2023-03-29T02:39:04.649Z,90.64
2023-03-29T02:41:31.950Z,90.41
2023-03-29T02:43:59.642Z,90.66
2023-03-29T02:46:26.748Z,90.50
2023-03-29T02:48:54.788Z,90.40
2023-03-29T02:51:25.723Z,90.10
2023-03-29T02:54:21.720Z,90.28
2023-03-29T02:56:50.749Z,90.24
2023-03-29T02:59:19.599Z,89.99
2023-03-29T03:01:46.503Z,90.12
2023-03-29T03:04:13.496Z,90.10
2023-03-29T03:06:40.906Z,89.92
2023-03-29T03:09:08.174Z,89.97
2023-03-29T03:11:35.525Z,90.00
2023-03-29T03:14:02.296Z,90.25
2023-03-29T03:16:29.025Z,90.36
2023-03-29T03:18:55.913Z,90.65
2023-03-29T03:21:23.061Z,90.84
2023-03-29T03:23:49.928Z,91.17
2023-03-29T03:26:18.245Z,91.57
2023-03-29T03:28:45.872Z,91.62
2023-03-29T03:31:15.537Z,91.83
2023-03-29T03:33:42.259Z,91.90
2023-03-29T03:36:11.050Z,91.60
2023-03-29T03:38:38.423Z,91.68
2023-03-29T03:41:07.077Z,91.13
2023-03-29T03:43:34.067Z,91.31
2023-03-29T03:46:00.882Z,91.16
2023-03-29T03:48:28.051Z,91.14
2023-03-29T03:50:57.154Z,90.79
2023-03-29T03:53:26.579Z,90.68
2023-03-29T03:55:56.122Z,90.97
2023-03-29T03:58:23.275Z,90.75
2023-03-29T04:00:50.931Z,90.94
2023-03-29T04:03:18.445Z,90.70
2023-03-29T04:05:46.676Z,91.37
2023-03-29T04:08:14.298Z,91.61
2023-03-29T04:10:41.336Z,91.93
2023-03-29T04:13:08.453Z,92.71
2023-03-29T04:15:38.728Z,93.45
2023-03-29T04:18:07.591Z,93.80
2023-03-29T04:20:34.788Z,93.97
2023-03-29T04:23:01.866Z,94.13
2023-03-29T04:25:29.104Z,94.35
2023-03-29T04:27:56.304Z,94.65
2023-03-29T04:30:23.437Z,94.93
2023-03-29T04:32:50.203Z,95.34
2023-03-29T04:35:16.937Z,95.95
2023-03-29T04:37:43.808Z,96.64
2023-03-29T04:40:15.093Z,97.01
2023-03-29T04:42:44.574Z,97.77
2023-03-29T04:45:14.065Z,99.05
2023-03-29T04:47:42.206Z,99.46
2023-03-29T04:50:09.339Z,100.00
2023-03-29T04:52:36.323Z,100.00
2023-03-29T04:55:04.913Z,100.00
2023-03-29T04:57:31.643Z,100.00
2023-03-29T04:59:58.423Z,100.00
2023-03-29T05:02:25.123Z,100.00
2023-03-29T05:04:52.421Z,100.00
2023-03-29T05:07:19.684Z,100.00
2023-03-29T05:09:46.482Z,100.00
2023-03-29T05:12:13.267Z,100.00
2023-03-29T05:14:40.061Z,100.00
2023-03-29T05:17:06.766Z,100.00
2023-03-29T05:19:33.876Z,100.00
2023-03-29T05:22:00.936Z,100.00
2023-03-29T05:24:27.718Z,100.00
2023-03-29T05:26:54.604Z,100.00
2023-03-29T05:29:21.841Z,100.00
2023-03-29T05:31:48.617Z,100.00
2023-03-29T05:34:15.345Z,100.00
2023-03-29T05:36:42.998Z,100.00
2023-03-29T05:39:11.099Z,100.00
2023-03-29T05:41:38.123Z,100.00
2023-03-29T05:44:04.851Z,100.00
2023-03-29T05:46:31.705Z,100.00
2023-03-29T05:48:58.383Z,100.00
2023-03-29T05:51:25.145Z,100.00
2023-03-29T05:53:52.334Z,100.00
2023-03-29T05:56:19.331Z,100.00
2023-03-29T05:58:54.847Z,100.00
2023-03-29T06:01:22.749Z,100.00
2023-03-29T06:03:49.731Z,100.00
2023-03-29T06:06:16.858Z,100.00
2023-03-29T06:08:44.355Z,100.00
2023-03-29T06:11:13.522Z,100.00
2023-03-29T06:13:41.649Z,100.00
2023-03-29T06:16:10.539Z,100.00
2023-03-29T06:18:40.419Z,100.00
2023-03-29T06:21:09.451Z,100.00
2023-03-29T06:23:36.712Z,100.00
2023-03-29T06:26:03.968Z,100.00
2023-03-29T06:28:30.819Z,100.00
2023-03-29T06:31:02.874Z,100.00
2023-03-29T06:33:32.500Z,100.00
2023-03-29T06:35:59.558Z,100.00
2023-03-29T06:38:28.689Z,100.00
2023-03-29T06:41:06.892Z,100.00
2023-03-29T06:43:34.955Z,100.00
2023-03-29T06:46:02.159Z,100.00
2023-03-29T06:48:29.308Z,100.00
2023-03-29T06:50:56.610Z,100.00
2023-03-29T06:53:23.443Z,100.00
2023-03-29T06:55:52.374Z,100.00
2023-03-29T06:58:19.043Z,100.00
2023-03-29T07:00:46.273Z,100.00
2023-03-29T07:03:20.139Z,100.00
2023-03-29T07:05:47.865Z,100.00
2023-03-29T07:08:16.661Z,100.00
2023-03-29T07:10:47.625Z,100.00
2023-03-29T07:13:15.751Z,100.00
2023-03-29T07:15:44.008Z,100.00
2023-03-29T07:18:11.602Z,100.00
2023-03-29T07:20:39.104Z,100.00
2023-03-29T07:23:07.097Z,100.00
2023-03-29T07:25:34.314Z,100.00
2023-03-29T07:28:02.272Z,100.00
2023-03-29T07:30:32.149Z,100.00
2023-03-29T07:32:59.700Z,99.70
2023-03-29T07:35:27.035Z,99.37
2023-03-29T07:37:55.965Z,99.04
2023-03-29T07:40:24.371Z,99.07
2023-03-29T07:42:57.399Z,98.74
2023-03-29T07:45:28.540Z,98.50
2023-03-29T07:47:59.740Z,98.24
2023-03-29T07:50:27.679Z,97.60
2023-03-29T07:52:54.940Z,97.24
2023-03-29T07:55:22.345Z,96.93
2023-03-29T07:57:49.968Z,96.59
2023-03-29T08:00:17.681Z,96.37
2023-03-29T08:02:45.959Z,95.96
2023-03-29T08:05:15.442Z,95.68
2023-03-29T08:07:46.795Z,95.52
2023-03-29T08:10:16.050Z,95.32
2023-03-29T08:12:43.332Z,95.28
2023-03-29T08:15:11.255Z,95.50
2023-03-29T08:17:38.194Z,96.27
2023-03-29T08:20:07.689Z,96.67
2023-03-29T08:22:34.647Z,96.93
2023-03-29T08:25:02.714Z,96.64
2023-03-29T08:27:29.501Z,96.92
2023-03-29T08:29:56.620Z,96.68
2023-03-29T08:32:23.588Z,96.63
2023-03-29T08:34:50.384Z,96.64
2023-03-29T08:37:17.458Z,96.54
2023-03-29T08:39:44.262Z,96.26
2023-03-29T08:42:38.767Z,96.16
2023-03-29T08:45:23.446Z,95.94
2023-03-29T08:48:12.645Z,95.51
2023-03-29T08:50:52.963Z,95.23
2023-03-29T08:53:34.986Z,94.93
2023-03-29T08:56:05.597Z,95.05
2023-03-29T08:58:34.065Z,95.07
2023-03-29T09:01:03.122Z,94.76
2023-03-29T09:04:05.336Z,94.74
2023-03-29T09:06:32.112Z,94.78
2023-03-29T09:08:58.856Z,94.92
2023-03-29T09:11:26.291Z,94.79
2023-03-29T09:14:08.892Z,94.99
2023-03-29T09:16:56.370Z,95.23
2023-03-29T09:19:40.213Z,95.20
2023-03-29T09:22:16.252Z,95.58
2023-03-29T09:25:04.238Z,95.65
2023-03-29T09:27:39.337Z,94.96
2023-03-29T09:30:25.934Z,95.24
2023-03-29T09:32:53.955Z,94.77
2023-03-29T09:35:28.045Z,94.34
2023-03-29T09:37:55.337Z,93.96
2023-03-29T09:40:31.301Z,93.78
2023-03-29T09:42:58.665Z,93.58
2023-03-29T09:45:25.390Z,93.17
2023-03-29T09:48:05.571Z,92.47
2023-03-29T09:50:42.834Z,92.28
2023-03-29T09:53:10.190Z,91.80
2023-03-29T09:55:39.869Z,91.22
2023-03-29T09:58:23.558Z,91.02
2023-03-29T10:00:50.587Z,90.77
2023-03-29T10:03:24.689Z,90.56
2023-03-29T10:05:55.838Z,90.32
2023-03-29T10:08:27.423Z,90.02
2023-03-29T10:10:55.093Z,89.36
2023-03-29T10:13:30.855Z,89.45
2023-03-29T10:16:09.429Z,89.02
2023-03-29T10:18:42.191Z,88.75
2023-03-29T10:21:15.819Z,88.28
2023-03-29T10:23:44.250Z,87.56
2023-03-29T10:26:24.485Z,87.03
2023-03-29T10:28:53.803Z,86.56
2023-03-29T10:31:21.485Z,85.85
2023-03-29T10:33:53.357Z,85.74
2023-03-29T10:36:27.475Z,85.03
2023-03-29T10:38:58.102Z,84.75
2023-03-29T10:41:27.405Z,84.61
2023-03-29T10:43:54.790Z,84.33
2023-03-29T10:46:30.587Z,83.83
2023-03-29T10:49:10.429Z,84.22
2023-03-29T10:51:37.683Z,84.16
2023-03-29T10:54:05.504Z,84.15
2023-03-29T10:56:41.588Z,83.94
2023-03-29T11:00:07.200Z,83.58
2023-03-29T11:03:10.292Z,82.73
2023-03-29T11:06:08.453Z,82.56
2023-03-29T11:08:49.639Z,82.49
2023-03-29T11:11:45.425Z,82.68
2023-03-29T11:14:28.183Z,82.65
2023-03-29T11:16:58.234Z,83.03
2023-03-29T11:19:25.147Z,82.94
2023-03-29T11:22:10.441Z,82.78
2023-03-29T11:24:43.361Z,82.95
2023-03-29T11:27:16.183Z,82.81
2023-03-29T11:29:54.690Z,83.24
2023-03-29T11:32:40.449Z,83.34
2023-03-29T11:35:25.536Z,83.57
2023-03-29T11:38:02.681Z,83.79
2023-03-29T11:40:41.302Z,83.99
2023-03-29T11:43:25.432Z,84.04
2023-03-29T11:46:20.885Z,83.76
2023-03-29T11:48:51.931Z,83.87
2023-03-29T11:51:38.488Z,83.57
2023-03-29T11:54:13.351Z,83.77
2023-03-29T11:56:44.762Z,83.80
2023-03-29T11:59:23.939Z,83.79
2023-03-29T12:01:56.503Z,83.50
2023-03-29T12:04:30.320Z,83.33
2023-03-29T12:07:13.714Z,83.16
2023-03-29T12:09:46.950Z,82.97
2023-03-29T12:12:25.272Z,82.83
2023-03-29T12:15:00.981Z,82.83
2023-03-29T12:17:31.541Z,82.81
2023-03-29T12:20:15.811Z,82.60
2023-03-29T12:22:51.102Z,82.95
2023-03-29T12:25:23.251Z,83.32
2023-03-29T12:28:11.808Z,83.30
2023-03-29T12:30:50.102Z,82.74
2023-03-29T12:33:55.243Z,82.52
2023-03-29T12:36:41.690Z,82.13
2023-03-29T12:39:14.342Z,81.92
2023-03-29T12:41:41.923Z,81.62
2023-03-29T12:44:13.709Z,81.76
2023-03-29T12:46:40.818Z,81.62
2023-03-29T12:49:15.243Z,81.71
2023-03-29T12:51:43.579Z,81.23
2023-03-29T12:54:22.240Z,81.30
2023-03-29T12:56:52.311Z,81.21
2023-03-29T12:59:40.818Z,81.16
2023-03-29T13:02:17.851Z,80.99
2023-03-29T13:04:58.344Z,80.99
2023-03-29T13:07:27.985Z,81.19
2023-03-29T13:10:03.853Z,81.60
2023-03-29T13:12:39.624Z,81.70
2023-03-29T13:15:22.298Z,82.30
2023-03-29T13:17:54.398Z,82.29
2023-03-29T13:20:33.240Z,82.35
2023-03-29T13:23:26.705Z,82.27
2023-03-29T13:26:19.245Z,82.26
2023-03-29T13:28:46.268Z,82.02
2023-03-29T13:31:22.191Z,81.65
2023-03-29T13:34:07.294Z,81.53
2023-03-29T13:36:50.750Z,81.46
2023-03-29T13:39:22.845Z,81.85
2023-03-29T13:41:51.924Z,81.44
2023-03-29T13:44:46.298Z,80.97
2023-03-29T13:47:19.408Z,81.11
2023-03-29T13:49:58.326Z,81.25
2023-03-29T13:52:32.943Z,81.12
2023-03-29T13:55:32.958Z,81.25
2023-03-29T13:58:08.578Z,81.36
2023-03-29T14:00:40.242Z,81.14
2023-03-29T14:03:13.430Z,80.85
2023-03-29T14:05:42.875Z,80.76
2023-03-29T14:08:22.604Z,80.60
2023-03-29T14:10:49.518Z,80.53
2023-03-29T14:13:18.861Z,80.45
2023-03-29T14:15:49.749Z,80.71
2023-03-29T14:18:19.408Z,80.29
2023-03-29T14:20:47.322Z,79.85
2023-03-29T14:23:19.482Z,79.83
2023-03-29T14:25:46.878Z,79.90
2023-03-29T14:28:25.497Z,79.77
2023-03-29T14:30:55.510Z,79.72
2023-03-29T14:33:28.010Z,79.74
2023-03-29T14:35:59.226Z,79.84
2023-03-29T14:38:27.302Z,79.95
2023-03-29T14:40:58.358Z,79.72
2023-03-29T14:43:27.694Z,79.05
2023-03-29T14:45:54.962Z,79.22
2023-03-29T14:48:22.332Z,78.88
2023-03-29T14:50:50.103Z,79.05
2023-03-29T14:53:19.883Z,79.06
2023-03-29T14:55:50.641Z,78.96
2023-03-29T14:58:23.538Z,78.73
2023-03-29T15:00:52.549Z,79.22
2023-03-29T15:03:22.995Z,78.75
2023-03-29T15:06:08.640Z,78.88
2023-03-29T15:08:38.854Z,78.69
2023-03-29T15:11:32.300Z,78.65
2023-03-29T15:14:05.014Z,78.39
2023-03-29T15:16:32.155Z,77.83
2023-03-29T15:19:01.794Z,77.79
2023-03-29T15:21:34.034Z,77.62
2023-03-29T15:24:02.747Z,77.96
2023-03-29T15:26:34.951Z,78.02
2023-03-29T15:29:08.377Z,78.11
2023-03-29T15:31:41.414Z,77.94
2023-03-29T15:34:14.769Z,77.71
2023-03-29T15:36:43.762Z,78.40
2023-03-29T15:39:15.783Z,78.04
2023-03-29T15:41:43.420Z,78.08
2023-03-29T15:44:11.389Z,77.96
2023-03-29T15:46:38.384Z,77.78
2023-03-29T15:49:05.342Z,78.09
2023-03-29T15:51:38.977Z,78.08
2023-03-29T15:54:06.882Z,78.57
2023-03-29T15:56:37.391Z,78.46
2023-03-29T15:59:04.806Z,79.00
2023-03-29T16:01:39.177Z,78.95
2023-03-29T16:04:18.122Z,78.72
2023-03-29T16:06:47.184Z,78.81
2023-03-29T16:09:15.871Z,78.84
2023-03-29T16:11:44.431Z,79.10
2023-03-29T16:14:27.472Z,79.30
2023-03-29T16:17:02.662Z,79.01
2023-03-29T16:19:31.306Z,79.51
2023-03-29T16:22:07.369Z,79.40
2023-03-29T16:24:35.737Z,79.49
2023-03-29T16:27:02.879Z,79.61
2023-03-29T16:29:30.047Z,79.77
2023-03-29T16:31:57.431Z,79.89
2023-03-29T16:34:24.388Z,79.59
2023-03-29T16:36:51.317Z,79.99
2023-03-29T16:39:18.745Z,79.79
2023-03-29T16:41:48.596Z,79.77
2023-03-29T16:44:23.556Z,79.63
2023-03-29T16:46:51.754Z,79.64
2023-03-29T16:49:18.480Z,79.76
2023-03-29T16:51:48.506Z,79.92
2023-03-29T16:54:17.310Z,79.63
2023-03-29T16:56:44.119Z,79.77
2023-03-29T16:59:11.019Z,80.27
2023-03-29T17:01:38.792Z,80.22
2023-03-29T17:04:05.679Z,80.20
2023-03-29T17:06:33.018Z,80.52
2023-03-29T17:09:02.854Z,80.63
2023-03-29T17:11:29.809Z,80.42
2023-03-29T17:13:56.958Z,80.62
2023-03-29T17:16:32.998Z,80.78
2023-03-29T17:19:01.921Z,80.91
2023-03-29T17:21:29.758Z,80.62
2023-03-29T17:23:56.564Z,80.99
2023-03-29T17:26:25.415Z,81.05
2023-03-29T17:28:52.146Z,81.18
2023-03-29T17:31:19.843Z,81.26
2023-03-29T17:33:47.693Z,81.10
2023-03-29T17:36:14.609Z,81.44
2023-03-29T17:38:43.235Z,81.13
2023-03-29T17:41:10.201Z,81.17
2023-03-29T17:43:37.076Z,81.30
2023-03-29T17:46:04.050Z,81.35
2023-03-29T17:48:36.992Z,81.35
2023-03-29T17:51:03.825Z,81.25
2023-03-29T17:53:33.656Z,81.77
2023-03-29T17:56:00.604Z,81.35
2023-03-29T17:58:27.414Z,81.79
2023-03-29T18:00:54.126Z,81.52
2023-03-29T18:03:20.968Z,82.13
2023-03-29T18:05:48.369Z,81.68
2023-03-29T18:08:15.255Z,82.29
2023-03-29T18:10:42.036Z,82.56
2023-03-29T18:13:14.013Z,82.60
2023-03-29T18:15:40.749Z,82.33
2023-03-29T18:18:07.619Z,82.75
2023-03-29T18:20:34.387Z,82.78
2023-03-29T18:23:01.297Z,82.52
2023-03-29T18:25:28.127Z,82.95
2023-03-29T18:27:54.897Z,83.15
2023-03-29T18:30:21.727Z,83.20
2023-03-29T18:32:48.557Z,83.40
2023-03-29T18:35:15.380Z,83.50
2023-03-29T18:37:42.039Z,83.11
2023-03-29T18:40:09.555Z,83.27
2023-03-29T18:42:36.432Z,83.14
2023-03-29T18:45:04.544Z,83.30
2023-03-29T18:47:36.433Z,83.22
2023-03-29T18:50:03.314Z,83.40
2023-03-29T18:52:30.174Z,83.89
2023-03-29T18:54:56.860Z,83.65
2023-03-29T18:57:23.717Z,84.01
2023-03-29T18:59:50.457Z,84.04
2023-03-29T19:02:17.444Z,84.09
2023-03-29T19:04:44.168Z,84.02
2023-03-29T19:07:10.944Z,84.58
2023-03-29T19:09:37.692Z,85.00
2023-03-29T19:12:04.738Z,85.01
2023-03-29T19:14:31.714Z,85.67
2023-03-29T19:17:05.979Z,85.50
2023-03-29T19:19:32.765Z,86.19
2023-03-29T19:22:00.709Z,86.64
2023-03-29T19:24:27.635Z,86.78
2023-03-29T19:26:54.736Z,87.30
2023-03-29T19:29:21.808Z,87.95
2023-03-29T19:31:48.634Z,88.21
2023-03-29T19:34:19.771Z,88.86
2023-03-29T19:36:47.095Z,89.11
2023-03-29T19:39:18.541Z,89.81
2023-03-29T19:41:45.386Z,89.98
2023-03-29T19:44:12.135Z,90.62
2023-03-29T19:46:39.105Z,90.75
2023-03-29T19:49:06.399Z,91.16
2023-03-29T19:51:33.108Z,91.65
2023-03-29T19:54:00.014Z,91.89
2023-03-29T19:56:26.874Z,92.24
2023-03-29T19:58:53.939Z,92.92
2023-03-29T20:01:21.184Z,93.26
2023-03-29T20:03:51.261Z,93.52
2023-03-29T20:06:19.431Z,93.97
2023-03-29T20:08:46.979Z,93.82
2023-03-29T20:11:14.948Z,94.38
2023-03-29T20:13:42.750Z,94.48
2023-03-29T20:16:11.863Z,94.65
2023-03-29T20:18:39.176Z,95.02
2023-03-29T20:21:06.819Z,95.10
2023-03-29T20:23:34.162Z,95.00
2023-03-29T20:26:01.578Z,95.29
2023-03-29T20:28:28.441Z,95.41
2023-03-29T20:30:55.298Z,95.43
2023-03-29T20:33:22.416Z,95.73
2023-03-29T20:35:49.627Z,96.10
2023-03-29T20:38:17.059Z,95.87
2023-03-29T20:40:45.053Z,96.36
2023-03-29T20:43:13.705Z,95.96
2023-03-29T20:45:52.513Z,96.47
2023-03-29T20:48:23.756Z,96.03
2023-03-29T20:50:51.040Z,96.17
2023-03-29T20:53:18.541Z,96.14
2023-03-29T20:55:45.967Z,95.98
2023-03-29T20:58:16.217Z,96.23
2023-03-29T21:00:43.995Z,96.16
2023-03-29T21:03:11.639Z,96.16
2023-03-29T21:05:39.221Z,96.01
2023-03-29T21:08:06.234Z,96.20
2023-03-29T21:10:33.095Z,96.04
2023-03-29T21:13:00.528Z,95.57
2023-03-29T21:15:30.645Z,95.79
2023-03-29T21:17:57.965Z,96.01
2023-03-29T21:20:24.853Z,95.86
2023-03-29T21:22:51.829Z,96.25
2023-03-29T21:25:18.969Z,96.01
2023-03-29T21:27:45.877Z,96.16
2023-03-29T21:30:12.837Z,96.33
2023-03-29T21:32:39.601Z,96.11
2023-03-29T21:35:07.117Z,96.13
2023-03-29T21:37:33.839Z,96.31
2023-03-29T21:40:00.753Z,96.47
2023-03-29T21:42:27.420Z,96.04
2023-03-29T21:44:54.228Z,96.11
2023-03-29T21:47:21.049Z,96.19
2023-03-29T21:49:47.836Z,96.35
2023-03-29T21:52:14.590Z,96.03
2023-03-29T21:54:41.267Z,96.20
2023-03-29T21:57:08.476Z,95.79
2023-03-29T21:59:35.182Z,95.99
2023-03-29T22:02:01.941Z,95.88
2023-03-29T22:04:36.594Z,95.97
2023-03-29T22:07:04.917Z,95.83
2023-03-29T22:09:33.034Z,95.70
2023-03-29T22:11:59.982Z,95.30
2023-03-29T22:14:28.711Z,95.37
2023-03-29T22:16:55.582Z,95.23
2023-03-29T22:19:22.338Z,95.18
2023-03-29T22:21:49.018Z,95.07
2023-03-29T22:24:16.625Z,95.01
2023-03-29T22:26:45.106Z,94.92
2023-03-29T22:29:12.210Z,95.04
2023-03-29T22:31:39.678Z,94.71
2023-03-29T22:34:06.900Z,94.48
2023-03-29T22:36:33.809Z,94.33
2023-03-29T22:39:00.780Z,94.22
2023-03-29T22:41:28.392Z,94.38
2023-03-29T22:43:56.969Z,94.06
2023-03-29T22:46:24.063Z,93.98
2023-03-29T22:48:51.360Z,93.77
2023-03-29T22:51:18.209Z,93.35
2023-03-29T22:53:47.242Z,93.40
2023-03-29T22:56:15.597Z,93.12
2023-03-29T22:58:42.453Z,92.66
2023-03-29T23:01:09.489Z,92.59
2023-03-29T23:03:37.002Z,92.73
2023-03-29T23:06:04.357Z,92.72
2023-03-29T23:08:33.151Z,92.73
2023-03-29T23:11:00.370Z,92.36
2023-03-29T23:13:29.395Z,92.54
2023-03-29T23:15:59.226Z,92.22
2023-03-29T23:18:28.775Z,92.25
2023-03-29T23:20:57.334Z,92.07
2023-03-29T23:23:26.028Z,92.01
2023-03-29T23:25:53.511Z,92.03
2023-03-29T23:28:23.767Z,92.14
2023-03-29T23:31:11.839Z,91.82
2023-03-29T23:33:42.940Z,91.81
2023-03-29T23:36:15.270Z,91.45
2023-03-29T23:38:43.599Z,91.51
2023-03-29T23:41:11.070Z,91.33
2023-03-29T23:43:40.729Z,91.14
2023-03-29T23:46:13.333Z,91.21
2023-03-29T23:48:40.172Z,90.95
2023-03-29T23:51:08.370Z,90.89
2023-03-29T23:53:35.040Z,90.86
2023-03-29T23:56:03.997Z,90.87
2023-03-29T23:58:33.131Z,90.76
